createdAt,value
2017-07-19T11:08:23.234Z,68.38
2017-07-19T11:09:44.776Z,70.32
2017-07-19T11:11:06.640Z,69.1
2017-07-19T11:12:28.792Z,67.67
2017-07-19T11:13:51.224Z,68.35
2017-07-19T11:15:13.196Z,68.55
2017-07-19T11:16:35.197Z,68.64
2017-07-19T11:17:57.689Z,68.55
2017-07-19T11:19:20.302Z,68.35
2017-07-19T11:20:42.654Z,66.21
2017-07-19T11:22:05.166Z,67.38
2017-07-19T11:23:26.702Z,66.31
2017-07-19T11:24:48.205Z,67.38
2017-07-19T11:26:09.745Z,67.54
2017-07-19T11:27:32.244Z,67.54
2017-07-19T11:28:54.088Z,67.63
2017-07-19T11:30:16.674Z,67.73
2017-07-19T11:31:39.156Z,67.35
2017-07-19T11:33:01.374Z,67.57
2017-07-19T11:34:23.849Z,66.6
2017-07-19T11:35:46.304Z,67.67
2017-07-19T11:37:08.175Z,66.41
2017-07-19T11:38:30.044Z,66.99
2017-07-19T11:39:51.772Z,67.77
2017-07-19T11:41:14.555Z,67.08
2017-07-19T11:42:37.051Z,68.35
2017-07-19T11:43:58.420Z,67.99
2017-07-19T11:45:20.699Z,67.5
2017-07-19T11:46:42.497Z,68.35
2017-07-19T11:48:04.661Z,66.44
2017-07-19T11:49:26.572Z,67.47
2017-07-19T11:50:48.423Z,66.6
2017-07-19T11:52:10.935Z,66.79
2017-07-19T11:53:33.299Z,67.86
2017-07-19T11:54:54.854Z,68.06
2017-07-19T11:56:16.744Z,67.57
2017-07-19T11:57:39.229Z,68.19
2017-07-19T11:59:01.812Z,69.42
2017-07-19T12:00:24.283Z,67.6
2017-07-19T12:01:46.149Z,67.9
2017-07-19T12:03:08.593Z,68.19
2017-07-19T12:04:30.436Z,68.09
2017-07-19T12:05:53.045Z,66.34
2017-07-19T12:07:15.515Z,67.12
2017-07-19T12:08:38.357Z,67.93
2017-07-19T12:10:00.815Z,69.98
2017-07-19T12:11:22.786Z,67.25
2017-07-19T12:12:45.035Z,67.64
2017-07-19T12:14:06.855Z,67.25
2017-07-19T12:15:29.126Z,66.47
2017-07-19T12:16:51.736Z,67.22
2017-07-19T12:18:14.236Z,66.66
2017-07-19T12:19:36.646Z,65.4
2017-07-19T12:20:59.105Z,65.69
2017-07-19T12:22:21.254Z,65.98
2017-07-19T12:23:43.213Z,66.11
2017-07-19T12:25:05.111Z,64.84
2017-07-19T12:26:27.435Z,64.65
2017-07-19T12:27:49.915Z,64.65
2017-07-19T12:29:11.786Z,64.58
2017-07-19T12:30:34.585Z,65.85
2017-07-19T12:31:57.091Z,65.46
2017-07-19T12:33:18.931Z,64.9
2017-07-19T12:34:41.120Z,65
2017-07-19T12:36:03.274Z,64.51
2017-07-19T12:37:25.450Z,64.71
2017-07-19T12:38:47.941Z,64.71
2017-07-19T12:40:10.104Z,64.42
2017-07-19T12:41:31.928Z,64.94
2017-07-19T12:42:54.096Z,64.16
2017-07-19T12:44:16.576Z,64.22
2017-07-19T12:45:38.535Z,64.22
2017-07-19T12:47:01.344Z,64.22
2017-07-19T12:48:23.922Z,64.42
2017-07-19T12:49:45.818Z,63.77
2017-07-19T12:51:08.074Z,63.57
2017-07-19T12:52:29.951Z,63.77
2017-07-19T12:53:52.542Z,64.45
2017-07-19T12:55:15.060Z,63.87
2017-07-19T12:56:36.614Z,62.99
2017-07-19T12:57:59.090Z,63.67
2017-07-19T12:59:21.680Z,63.67
2017-07-19T13:00:43.583Z,63.38
2017-07-19T13:02:05.888Z,63.77
2017-07-19T13:03:28.319Z,63.18
2017-07-19T13:04:50.796Z,63.12
2017-07-19T13:06:13.348Z,63.12
2017-07-19T13:07:35.837Z,60.5
2017-07-19T13:08:58.514Z,61.71
2017-07-19T13:10:21.029Z,62.29
2017-07-19T13:11:43.623Z,61.25
2017-07-19T13:13:05.174Z,62.1
2017-07-19T13:14:27.906Z,62.95
2017-07-19T13:15:49.442Z,62.82
2017-07-19T13:17:11.607Z,62.95
2017-07-19T13:18:33.566Z,63.12
2017-07-19T13:19:56.416Z,63.44
2017-07-19T13:21:19.011Z,62.59
2017-07-19T13:22:40.936Z,62.66
2017-07-19T13:24:03.156Z,64.29
2017-07-19T13:25:25.616Z,64
2017-07-19T13:26:47.458Z,63.64
2017-07-19T13:28:09.659Z,63.37
2017-07-19T13:29:31.850Z,63.18
2017-07-19T13:30:54.637Z,63.93
2017-07-19T13:32:16.828Z,62.98
2017-07-19T13:33:39.097Z,61.83
2017-07-19T13:35:01.266Z,62.39
2017-07-19T13:36:23.705Z,63.8
2017-07-19T13:37:45.595Z,63.7
2017-07-19T13:39:08.083Z,63.21
2017-07-19T13:40:29.946Z,63.02
2017-07-19T13:41:52.063Z,63.87
2017-07-19T13:43:13.948Z,63.77
2017-07-19T13:44:36.184Z,63.31
2017-07-19T13:45:58.682Z,64.58
2017-07-19T13:47:21.228Z,63.02
2017-07-19T13:48:43.072Z,63.44
2017-07-19T13:50:05.253Z,64.12
2017-07-19T13:51:27.754Z,64.22
2017-07-19T13:52:50.265Z,64.9
2017-07-19T13:54:11.846Z,63.93
2017-07-19T13:55:34.346Z,64.81
2017-07-19T13:56:56.908Z,65.07
2017-07-19T13:58:19.385Z,63.7
2017-07-19T13:59:41.948Z,64.36
2017-07-19T14:01:03.831Z,66.02
2017-07-19T14:02:25.749Z,65.04
2017-07-19T14:03:48.476Z,65.14
2017-07-19T14:05:10.774Z,66.37
2017-07-19T14:06:33.050Z,65.72
2017-07-19T14:07:55.246Z,66.56
2017-07-19T14:09:17.361Z,66.47
2017-07-19T14:10:39.211Z,66.56
2017-07-19T14:12:01.403Z,65.69
2017-07-19T14:13:23.338Z,66.56
2017-07-19T14:14:45.542Z,67.64
2017-07-19T14:16:07.763Z,67.83
2017-07-19T14:17:29.966Z,67.58
2017-07-19T14:18:51.815Z,67.38
2017-07-19T14:20:14.343Z,67.19
2017-07-19T14:21:36.255Z,68.03
2017-07-19T14:22:57.775Z,67.54
2017-07-19T14:24:19.636Z,68.03
2017-07-19T14:25:42.598Z,68.68
2017-07-19T14:27:04.763Z,69.85
2017-07-19T14:28:26.624Z,69.56
2017-07-19T14:29:48.916Z,69.26
2017-07-19T14:31:11.148Z,68
2017-07-19T14:32:33.653Z,68.68
2017-07-19T14:33:55.561Z,67.71
2017-07-19T14:35:17.426Z,68.39
2017-07-19T14:36:39.877Z,68.49
2017-07-19T14:38:02.147Z,68.23
2017-07-19T14:39:25.930Z,68.97
2017-07-19T14:40:47.821Z,68.62
2017-07-19T14:42:10.436Z,67.93
2017-07-19T14:43:32.730Z,67.83
2017-07-19T14:44:54.890Z,67.71
2017-07-19T14:46:17.466Z,67.8
2017-07-19T14:47:39.556Z,68.49
2017-07-19T14:49:02.196Z,67.44
2017-07-19T14:50:24.051Z,68.03
2017-07-19T14:51:46.617Z,68.49
2017-07-19T14:53:09.122Z,68.03
2017-07-19T14:54:31.294Z,66.27
2017-07-19T14:55:53.471Z,67.74
2017-07-19T14:57:15.997Z,67.44
2017-07-19T14:58:38.316Z,67.19
2017-07-19T15:00:00.486Z,66.89
2017-07-19T15:01:22.714Z,66.86
2017-07-19T15:02:44.890Z,67.35
2017-07-19T15:04:07.363Z,67.68
2017-07-19T15:05:29.532Z,67.74
2017-07-19T15:06:51.717Z,66.21
2017-07-19T15:08:13.738Z,67.19
2017-07-19T15:09:36.695Z,67.15
2017-07-19T15:10:58.257Z,67.97
2017-07-19T15:12:20.102Z,67.87
2017-07-19T15:13:41.971Z,68.26
2017-07-19T15:15:03.489Z,68.26
2017-07-19T15:16:25.706Z,67.68
2017-07-19T15:17:47.916Z,68.26
2017-07-19T15:19:09.762Z,68.71
2017-07-19T15:20:32.237Z,69.1
2017-07-19T15:21:54.430Z,68.23
2017-07-19T15:23:16.687Z,69.26
2017-07-19T15:24:38.247Z,70.14
2017-07-19T15:26:00.402Z,70.04
2017-07-19T15:27:22.336Z,70.04
2017-07-19T15:28:44.508Z,70.14
2017-07-19T15:30:07.079Z,70.6
2017-07-19T15:31:29.181Z,70.73
2017-07-19T15:32:51.032Z,69.95
2017-07-19T15:34:12.897Z,70.04
2017-07-19T15:35:34.727Z,71.02
2017-07-19T15:36:56.877Z,70.04
2017-07-19T15:38:18.424Z,69.26
2017-07-19T15:39:40.577Z,68.77
2017-07-19T15:41:03.145Z,69.36
2017-07-19T15:42:25.405Z,70.34
2017-07-19T15:43:47.567Z,69.75
2017-07-19T15:45:10.046Z,70.14
2017-07-19T15:46:32.210Z,69.85
2017-07-19T15:47:54.657Z,69.36
2017-07-19T15:49:16.852Z,68.97
2017-07-19T15:50:39.026Z,70.21
2017-07-19T15:52:01.207Z,70.7
2017-07-19T15:53:23.480Z,70.83
2017-07-19T15:54:45.669Z,70.43
2017-07-19T15:56:08.228Z,70.73
2017-07-19T15:57:30.093Z,71.08
2017-07-19T15:58:52.974Z,71.47
2017-07-19T16:00:15.466Z,72.35
2017-07-19T16:01:37.305Z,71.96
2017-07-19T16:02:59.787Z,72.55
2017-07-19T16:04:22.266Z,72.51
2017-07-19T16:05:44.426Z,73.39
2017-07-19T16:07:06.581Z,73.58
2017-07-19T16:08:28.117Z,73.97
2017-07-19T16:09:50.857Z,73.78
2017-07-19T16:11:13.374Z,74.52
2017-07-19T16:12:35.956Z,74.91
2017-07-19T16:13:58.353Z,74.82
2017-07-19T16:15:21.156Z,74.43
2017-07-19T16:16:43.726Z,74.46
2017-07-19T16:18:05.582Z,73.88
2017-07-19T16:19:28.161Z,73.88
2017-07-19T16:20:50.916Z,73.78
2017-07-19T16:22:13.213Z,73.68
2017-07-19T16:23:35.726Z,73.33
2017-07-19T16:24:57.897Z,72.84
2017-07-19T16:26:20.317Z,72.68
2017-07-19T16:27:42.786Z,71.8
2017-07-19T16:29:04.641Z,72.13
2017-07-19T16:30:26.266Z,71.35
2017-07-19T16:31:48.986Z,71.25
2017-07-19T16:33:11.457Z,71.25
2017-07-19T16:34:33.669Z,72.33
2017-07-19T16:35:55.192Z,71.12
2017-07-19T16:37:17.698Z,71.8
2017-07-19T16:38:40.355Z,71.9
2017-07-19T16:40:01.642Z,72.35
2017-07-19T16:41:23.478Z,73.13
2017-07-19T16:42:45.916Z,73.88
2017-07-19T16:44:08.169Z,73.68
2017-07-19T16:45:30.689Z,75.04
2017-07-19T16:46:52.946Z,74.95
2017-07-19T16:48:15.367Z,75.24
2017-07-19T16:49:37.868Z,75.01
2017-07-19T16:50:59.704Z,75.14
2017-07-19T16:52:22.214Z,75.1
2017-07-19T16:53:44.767Z,75.1
2017-07-19T16:55:07.369Z,75.49
2017-07-19T16:56:29.865Z,75.2
2017-07-19T16:57:51.776Z,75.49
2017-07-19T16:59:13.897Z,76.24
2017-07-19T17:00:36.142Z,76.43
2017-07-19T17:01:57.998Z,76.24
2017-07-19T17:03:20.182Z,76.88
2017-07-19T17:04:42.155Z,77.17
2017-07-19T17:06:04.378Z,77.37
2017-07-19T17:07:26.273Z,77.56
2017-07-19T17:08:48.788Z,77.86
2017-07-19T17:10:11.303Z,78.2
2017-07-19T17:11:33.485Z,79.18
2017-07-19T17:12:55.677Z,79.66
2017-07-19T17:14:17.266Z,79.63
2017-07-19T17:15:40.377Z,79.92
2017-07-19T17:17:02.568Z,80.89
2017-07-19T17:18:25.120Z,80.79
2017-07-19T17:19:47.471Z,81.09
2017-07-19T17:21:09.905Z,80.85
2017-07-19T17:22:32.523Z,81.04
2017-07-19T17:23:55.017Z,82.02
2017-07-19T17:25:17.538Z,81.92
2017-07-19T17:26:40.239Z,82.31
2017-07-19T17:28:02.124Z,82.31
2017-07-19T17:29:23.982Z,83.14
2017-07-19T17:30:45.878Z,82.75
2017-07-19T17:32:08.345Z,83.14
2017-07-19T17:33:30.868Z,83.24
2017-07-19T17:34:52.541Z,83.72
2017-07-19T17:36:14.718Z,83.72
2017-07-19T17:37:36.608Z,83.72
2017-07-19T17:38:58.915Z,84.21
2017-07-19T17:40:21.215Z,83.82
2017-07-19T17:41:43.710Z,84.75
2017-07-19T17:43:06.288Z,85.04
2017-07-19T17:44:28.770Z,85.53
2017-07-19T17:45:50.959Z,85.92
2017-07-19T17:47:13.445Z,86.5
2017-07-19T17:48:36.194Z,86.5
2017-07-19T17:49:59.528Z,86.99
2017-07-19T17:51:22.729Z,86.65
2017-07-19T17:52:45.628Z,87.13
2017-07-19T17:54:09.037Z,87.62
2017-07-19T17:55:32.161Z,87.62
2017-07-19T17:56:54.565Z,88.1
2017-07-19T17:58:17.111Z,87.72
2017-07-19T17:59:40.221Z,87.33
2017-07-19T18:01:02.990Z,88.01
2017-07-19T18:02:25.624Z,87.38
2017-07-19T18:03:48.748Z,87.96
2017-07-19T18:05:11.800Z,87.82
2017-07-19T18:06:34.979Z,87.29
2017-07-19T18:07:57.710Z,87.96
2017-07-19T18:09:20.819Z,88.45
2017-07-19T18:10:43.969Z,88.74
2017-07-19T18:12:06.607Z,90.3
2017-07-19T18:13:29.523Z,89.03
2017-07-19T18:14:51.693Z,87.38
2017-07-19T18:16:14.719Z,88.06
2017-07-19T18:17:37.843Z,89.03
2017-07-19T18:19:00.195Z,91.02
2017-07-19T18:20:22.903Z,93.35
2017-07-19T18:21:45.348Z,96.31
2017-07-19T18:23:08.034Z,98.68
2017-07-19T18:24:30.065Z,99.99
2017-07-19T18:25:52.254Z,99.99
2017-07-19T18:27:15.146Z,99.99
2017-07-19T18:28:37.316Z,99.99
2017-07-19T18:29:59.556Z,99.99
2017-07-19T18:31:22.049Z,99.99
2017-07-19T18:32:44.536Z,99.99
2017-07-19T18:34:07.056Z,99.99
2017-07-19T18:35:29.311Z,99.99
2017-07-19T18:36:51.485Z,99.99
2017-07-19T18:38:14.328Z,99.99
2017-07-19T18:39:36.514Z,99.99
2017-07-19T18:40:58.683Z,99.99
2017-07-19T18:42:20.265Z,99.99
2017-07-19T18:43:43.036Z,99.99
2017-07-19T18:45:05.227Z,99.99
2017-07-19T18:46:27.423Z,99.99
2017-07-19T18:47:49.287Z,99.99
2017-07-19T18:49:11.780Z,99.99
2017-07-19T18:50:33.972Z,99.99
2017-07-19T18:51:55.845Z,99.99
2017-07-19T18:53:18.029Z,99.99
2017-07-19T18:54:40.535Z,99.99
2017-07-19T18:56:02.725Z,99.99
2017-07-19T18:57:24.979Z,99.99
2017-07-19T18:58:47.487Z,99.99
2017-07-19T19:00:10.466Z,99.99
2017-07-19T19:01:32.667Z,99.99
2017-07-19T19:02:55.281Z,99.99
2017-07-19T19:04:17.885Z,99.99
2017-07-19T19:05:40.046Z,99.99
2017-07-19T19:07:02.354Z,99.99
2017-07-19T19:08:24.677Z,99.99
2017-07-19T19:09:47.182Z,99.99
2017-07-19T19:11:09.966Z,99.99
2017-07-19T19:12:31.866Z,99.99
2017-07-19T19:13:54.427Z,99.99
2017-07-19T19:15:15.979Z,99.99
2017-07-19T19:16:38.461Z,99.99
2017-07-19T19:18:00.776Z,99.99
2017-07-19T19:19:23.027Z,99.99
2017-07-19T19:20:45.246Z,99.99
2017-07-19T19:22:07.185Z,99.99
2017-07-19T19:23:29.439Z,99.99
2017-07-19T19:24:51.731Z,99.99
2017-07-19T19:26:13.894Z,99.99
2017-07-19T19:27:36.655Z,99.99
2017-07-19T19:28:58.876Z,99.99
2017-07-19T19:30:21.146Z,99.99
2017-07-19T19:31:43.669Z,99.99
2017-07-19T19:33:05.870Z,99.99
2017-07-19T19:34:28.357Z,99.99
2017-07-19T19:35:50.557Z,99.99
2017-07-19T19:37:12.741Z,99.99
2017-07-19T19:38:35.303Z,99.99
2017-07-19T19:39:57.782Z,99.99
2017-07-19T19:41:20.341Z,99.99
2017-07-19T19:42:42.377Z,99.99
2017-07-19T19:44:04.579Z,99.99
2017-07-19T19:45:26.454Z,99.99
2017-07-19T19:46:49.078Z,99.99
2017-07-19T19:48:11.274Z,99.99
2017-07-19T19:49:33.826Z,99.99
2017-07-19T19:50:55.737Z,99.99
2017-07-19T19:52:17.996Z,99.99
2017-07-19T19:53:40.218Z,99.99
2017-07-19T19:55:02.768Z,99.99
2017-07-19T19:56:25.312Z,99.99
2017-07-19T19:57:47.935Z,99.99
2017-07-19T19:59:09.876Z,99.99
2017-07-19T20:00:32.676Z,99.99
2017-07-19T20:01:55.174Z,99.99
2017-07-19T20:03:17.105Z,99.99
2017-07-19T20:04:38.944Z,99.99
2017-07-19T20:06:01.073Z,99.99
2017-07-19T20:07:23.299Z,99.99
2017-07-19T20:08:45.534Z,99.99
2017-07-19T20:10:07.746Z,99.99
2017-07-19T20:11:30.535Z,99.99
2017-07-19T20:12:52.707Z,99.99
2017-07-19T20:14:14.968Z,99.99
2017-07-19T20:15:37.486Z,99.99
2017-07-19T20:17:00.287Z,99.99
2017-07-19T20:18:22.176Z,99.99
2017-07-19T20:19:44.726Z,99.99
2017-07-19T20:21:07.288Z,99.99
2017-07-19T20:22:30.086Z,99.99
2017-07-19T20:23:52.277Z,99.99
2017-07-19T20:25:14.508Z,99.99
2017-07-19T20:26:37.146Z,99.99
2017-07-19T20:27:59.936Z,99.99
2017-07-19T20:29:22.155Z,99.99
2017-07-19T20:30:44.337Z,99.99
2017-07-19T20:32:06.820Z,99.99
2017-07-19T20:33:28.790Z,99.99
2017-07-19T20:34:50.964Z,99.99
2017-07-19T20:36:13.129Z,99.99
2017-07-19T20:37:35.016Z,99.99
2017-07-19T20:38:57.756Z,99.99
2017-07-19T20:40:20.385Z,99.99
2017-07-19T20:41:42.877Z,99.99
2017-07-19T20:43:05.381Z,99.99
2017-07-19T20:44:27.911Z,99.99
2017-07-19T20:45:49.781Z,99.99
2017-07-19T20:47:11.964Z,99.99
2017-07-19T20:48:34.216Z,99.99
2017-07-19T20:49:56.802Z,99.99
2017-07-19T20:51:19.328Z,99.99
2017-07-19T20:52:41.516Z,99.99
2017-07-19T20:54:03.699Z,99.99
2017-07-19T20:55:26.291Z,99.99
2017-07-19T20:56:48.467Z,99.99
2017-07-19T20:58:10.634Z,99.99
2017-07-19T20:59:32.489Z,99.99
2017-07-19T21:00:54.979Z,99.99
2017-07-19T21:02:17.479Z,99.99
2017-07-19T21:03:39.768Z,99.99
2017-07-19T21:05:01.640Z,99.99
2017-07-19T21:06:24.418Z,99.99
2017-07-19T21:07:46.281Z,99.99
2017-07-19T21:09:08.459Z,99.99
2017-07-19T21:10:31.054Z,99.99
2017-07-19T21:11:53.778Z,99.99
2017-07-19T21:13:15.966Z,99.99
2017-07-19T21:14:38.445Z,99.99
2017-07-19T21:15:59.985Z,99.99
2017-07-19T21:17:21.788Z,99.99
2017-07-19T21:18:43.646Z,99.99
2017-07-19T21:20:06.150Z,99.99
2017-07-19T21:21:28.722Z,99.99
2017-07-19T21:22:50.840Z,99.99
2017-07-19T21:24:13.148Z,99.99
2017-07-19T21:25:34.989Z,99.99
2017-07-19T21:26:57.178Z,99.99
2017-07-19T21:28:19.256Z,99.99
2017-07-19T21:29:41.084Z,99.99
2017-07-19T21:31:03.554Z,99.99
2017-07-19T21:32:25.390Z,99.99
2017-07-19T21:33:47.827Z,99.99
2017-07-19T21:35:10.099Z,99.99
2017-07-19T21:36:32.289Z,99.99
2017-07-19T21:37:53.930Z,99.99
2017-07-19T21:39:16.915Z,99.99
2017-07-19T21:40:39.398Z,99.99
2017-07-19T21:42:01.296Z,99.99
2017-07-19T21:43:23.780Z,99.99
2017-07-19T21:44:46.308Z,99.99
2017-07-19T21:46:08.510Z,99.99
2017-07-19T21:47:30.411Z,99.99
2017-07-19T21:48:52.592Z,99.99
2017-07-19T21:50:15.057Z,99.99
2017-07-19T21:51:37.009Z,99.99
2017-07-19T21:52:59.176Z,99.99
2017-07-19T21:54:21.389Z,99.99
2017-07-19T21:55:43.799Z,99.99
2017-07-19T21:57:05.989Z,99.99
2017-07-19T21:58:28.163Z,99.99
2017-07-19T21:59:50.781Z,99.99
2017-07-19T22:01:13.300Z,99.99
2017-07-19T22:02:35.503Z,99.99
2017-07-19T22:03:57.966Z,99.99
2017-07-19T22:05:20.453Z,99.99
2017-07-19T22:06:43.266Z,99.99
2017-07-19T22:08:05.158Z,99.99
2017-07-19T22:09:26.700Z,99.99
2017-07-19T22:10:48.864Z,99.99
2017-07-19T22:12:10.998Z,99.99
2017-07-19T22:13:32.529Z,99.99
2017-07-19T22:14:55.056Z,99.99
2017-07-19T22:16:17.230Z,99.99
2017-07-19T22:17:39.334Z,99.99
2017-07-19T22:19:01.159Z,99.99
2017-07-19T22:20:23.104Z,99.99
2017-07-19T22:21:45.283Z,99.99
2017-07-19T22:23:07.469Z,99.99
2017-07-19T22:24:29.340Z,99.99
2017-07-19T22:25:51.538Z,99.99
2017-07-19T22:27:13.764Z,99.99
2017-07-19T22:28:35.849Z,99.99
2017-07-19T22:29:57.089Z,99.99
2017-07-19T22:31:19.008Z,99.99
2017-07-19T22:32:40.223Z,99.99
2017-07-19T22:34:02.336Z,99.99
2017-07-19T22:35:23.868Z,99.99
2017-07-19T22:36:45.746Z,99.99
2017-07-19T22:38:07.924Z,99.99
2017-07-19T22:39:30.097Z,99.99
2017-07-19T22:40:52.259Z,99.99
2017-07-19T22:42:14.766Z,99.99
2017-07-19T22:43:36.672Z,99.99
2017-07-19T22:44:58.510Z,99.99
2017-07-19T22:46:20.417Z,99.99
2017-07-19T22:47:42.724Z,99.99
2017-07-19T22:49:04.607Z,99.99
2017-07-19T22:50:27.213Z,99.99
2017-07-19T22:51:49.067Z,99.99
2017-07-19T22:53:11.250Z,99.99
2017-07-19T22:54:32.914Z,99.99
2017-07-19T22:55:55.127Z,99.99
2017-07-19T22:57:16.765Z,99.99
2017-07-19T22:58:39.036Z,99.99
2017-07-19T23:00:00.543Z,99.99
2017-07-19T23:01:23.329Z,99.99
2017-07-19T23:02:45.176Z,99.99
2017-07-19T23:04:07.656Z,99.99
2017-07-19T23:05:29.809Z,99.99
2017-07-19T23:06:52.236Z,99.99
2017-07-19T23:08:14.498Z,99.99
2017-07-19T23:09:36.195Z,99.99
2017-07-19T23:10:58.368Z,99.99
2017-07-19T23:12:20.125Z,99.99
2017-07-19T23:13:42.746Z,99.99
2017-07-19T23:15:05.227Z,99.99
2017-07-19T23:16:27.429Z,99.99
2017-07-19T23:17:50.126Z,99.99
2017-07-19T23:19:11.977Z,99.99
2017-07-19T23:20:34.137Z,99.99
2017-07-19T23:21:56.045Z,99.99
2017-07-19T23:23:18.815Z,99.99
2017-07-19T23:24:40.967Z,99.99
2017-07-19T23:26:03.512Z,99.99
2017-07-19T23:27:26.172Z,99.99
2017-07-19T23:28:48.121Z,99.99
2017-07-19T23:30:09.948Z,99.99
2017-07-19T23:31:31.159Z,99.99
2017-07-19T23:32:53.351Z,99.99
2017-07-19T23:34:15.817Z,99.99
2017-07-19T23:35:37.636Z,99.99
2017-07-19T23:36:59.165Z,99.99
2017-07-19T23:38:20.996Z,99.99
2017-07-19T23:39:43.567Z,99.99
2017-07-19T23:41:05.385Z,99.99
2017-07-19T23:42:27.026Z,99.99
2017-07-19T23:43:48.547Z,99.99
2017-07-19T23:45:10.326Z,99.99
2017-07-19T23:46:32.514Z,99.99
2017-07-19T23:47:54.994Z,99.99
2017-07-19T23:49:16.956Z,99.99
2017-07-19T23:50:39.070Z,99.99
2017-07-19T23:52:00.609Z,99.99
2017-07-19T23:53:22.837Z,99.99
2017-07-19T23:54:45.079Z,99.99
2017-07-19T23:56:07.585Z,99.99
2017-07-19T23:57:29.737Z,99.99
2017-07-19T23:58:51.901Z,99.99
